sensor_id;sensor_type;location;lat;lon;timestamp;temperature;humidity
45843;DHT22;31563;51.744;8.252;2023-01-10T00:14:50;17.80;59.80
45843;DHT22;31563;51.744;8.252;2023-01-10T00:32:20;17.70;58.20
45843;DHT22;31563;51.744;8.252;2023-01-10T00:34:48;17.70;59.00
45843;DHT22;31563;51.744;8.252;2023-01-10T00:47:30;17.50;58.50
45843;DHT22;31563;51.744;8.252;2023-01-10T00:49:58;17.70;70.80
45843;DHT22;31563;51.744;8.252;2023-01-10T00:59:51;17.30;85.20
45843;DHT22;31563;51.744;8.252;2023-01-10T01:04:49;17.40;57.50
45843;DHT22;31563;51.744;8.252;2023-01-10T01:19:58;17.30;57.80
45843;DHT22;31563;51.744;8.252;2023-01-10T01:37:18;17.20;58.00
45843;DHT22;31563;51.744;8.252;2023-01-10T01:42:25;17.30;57.00
45843;DHT22;31563;51.744;8.252;2023-01-10T01:45:34;17.40;59.00
45843;DHT22;31563;51.744;8.252;2023-01-10T01:48:10;17.50;55.70
45843;DHT22;31563;51.744;8.252;2023-01-10T01:50:43;16.70;57.20
45843;DHT22;31563;51.744;8.252;2023-01-10T01:53:17;17.50;58.10
45843;DHT22;31563;51.744;8.252;2023-01-10T01:55:47;17.50;57.50
45843;DHT22;31563;51.744;8.252;2023-01-10T01:58:18;17.30;79.30
45843;DHT22;31563;51.744;8.252;2023-01-10T02:08:14;17.00;58.20
45843;DHT22;31563;51.744;8.252;2023-01-10T02:10:45;17.40;58.50
45843;DHT22;31563;51.744;8.252;2023-01-10T02:13:18;17.00;58.40
45843;DHT22;31563;51.744;8.252;2023-01-10T02:18:16;17.20;53.20
45843;DHT22;31563;51.744;8.252;2023-01-10T02:20:56;17.20;77.80
45843;DHT22;31563;51.744;8.252;2023-01-10T02:26:56;17.60;58.60
45843;DHT22;31563;51.744;8.252;2023-01-10T02:32:41;17.70;56.10
45843;DHT22;31563;51.744;8.252;2023-01-10T02:35:46;17.70;53.00
45843;DHT22;31563;51.744;8.252;2023-01-10T02:38:26;17.70;57.00
45843;DHT22;31563;51.744;8.252;2023-01-10T02:41:02;17.70;55.60
45843;DHT22;31563;51.744;8.252;2023-01-10T02:43:34;17.50;57.60
45843;DHT22;31563;51.744;8.252;2023-01-10T02:46:07;17.60;58.00
45843;DHT22;31563;51.744;8.252;2023-01-10T02:48:38;17.60;58.30
45843;DHT22;31563;51.744;8.252;2023-01-10T02:51:11;16.80;55.70
45843;DHT22;31563;51.744;8.252;2023-01-10T02:53:44;17.30;57.00
45843;DHT22;31563;51.744;8.252;2023-01-10T02:59:21;16.50;57.80
45843;DHT22;31563;51.744;8.252;2023-01-10T03:01:59;17.70;59.70
45843;DHT22;31563;51.744;8.252;2023-01-10T03:04:40;17.40;58.50
45843;DHT22;31563;51.744;8.252;2023-01-10T03:07:16;17.80;59.20
45843;DHT22;31563;51.744;8.252;2023-01-10T03:09:53;17.10;57.70
45843;DHT22;31563;51.744;8.252;2023-01-10T03:12:26;16.50;58.40
45843;DHT22;31563;51.744;8.252;2023-01-10T03:14:56;16.90;58.50
45843;DHT22;31563;51.744;8.252;2023-01-10T03:17:28;16.20;58.50
45843;DHT22;31563;51.744;8.252;2023-01-10T03:20:01;17.10;58.90
45843;DHT22;31563;51.744;8.252;2023-01-10T03:22:33;16.40;58.30
45843;DHT22;31563;51.744;8.252;2023-01-10T03:30:10;17.30;59.20
45843;DHT22;31563;51.744;8.252;2023-01-10T03:35:11;17.10;59.00
45843;DHT22;31563;51.744;8.252;2023-01-10T03:37:44;17.00;59.40
45843;DHT22;31563;51.744;8.252;2023-01-10T03:40:21;17.40;59.00
45843;DHT22;31563;51.744;8.252;2023-01-10T03:42:54;17.70;59.50
45843;DHT22;31563;51.744;8.252;2023-01-10T03:45:47;17.10;59.80
45843;DHT22;31563;51.744;8.252;2023-01-10T03:48:17;16.60;58.50
45843;DHT22;31563;51.744;8.252;2023-01-10T03:50:50;16.90;58.50
45843;DHT22;31563;51.744;8.252;2023-01-10T03:55:48;17.00;56.60
45843;DHT22;31563;51.744;8.252;2023-01-10T04:05:44;16.90;81.60
45843;DHT22;31563;51.744;8.252;2023-01-10T04:08:14;17.10;57.00
45843;DHT22;31563;51.744;8.252;2023-01-10T04:25:34;17.00;57.80
45843;DHT22;31563;51.744;8.252;2023-01-10T04:42:55;16.90;58.30
45843;DHT22;31563;51.744;8.252;2023-01-10T04:45:23;16.60;86.00
45843;DHT22;31563;51.744;8.252;2023-01-10T05:00:19;17.00;55.00
45843;DHT22;31563;51.744;8.252;2023-01-10T05:17:41;17.50;55.00
45843;DHT22;31563;51.744;8.252;2023-01-10T05:20:10;17.20;79.80
45843;DHT22;31563;51.744;8.252;2023-01-10T05:22:39;17.80;79.30
45843;DHT22;31563;51.744;8.252;2023-01-10T05:25:08;18.10;52.20
45843;DHT22;31563;51.744;8.252;2023-01-10T05:27:39;17.60;53.70
45843;DHT22;31563;51.744;8.252;2023-01-10T05:30:10;17.80;85.40
45843;DHT22;31563;51.744;8.252;2023-01-10T05:35:09;17.60;85.30
45843;DHT22;31563;51.744;8.252;2023-01-10T05:37:37;18.20;84.80
45843;DHT22;31563;51.744;8.252;2023-01-10T05:40:07;18.20;86.10
45843;DHT22;31563;51.744;8.252;2023-01-10T05:45:04;17.90;78.00
45843;DHT22;31563;51.744;8.252;2023-01-10T05:52:31;18.20;55.10
45843;DHT22;31563;51.744;8.252;2023-01-10T05:54:59;18.30;84.50
45843;DHT22;31563;51.744;8.252;2023-01-10T06:09:51;18.20;55.30
45843;DHT22;31563;51.744;8.252;2023-01-10T06:27:13;17.60;56.50
45843;DHT22;31563;51.744;8.252;2023-01-10T06:29:41;18.30;83.90
45843;DHT22;31563;51.744;8.252;2023-01-10T06:39:35;18.20;67.90
45843;DHT22;31563;51.744;8.252;2023-01-10T06:44:33;17.90;55.30
45843;DHT22;31563;51.744;8.252;2023-01-10T07:01:54;18.00;55.50
45843;DHT22;31563;51.744;8.252;2023-01-10T07:06:52;18.00;55.10
45843;DHT22;31563;51.744;8.252;2023-01-10T07:19:15;18.20;55.70
45843;DHT22;31563;51.744;8.252;2023-01-10T07:36:38;18.40;55.70
45843;DHT22;31563;51.744;8.252;2023-01-10T07:44:04;18.00;54.70
45843;DHT22;31563;51.744;8.252;2023-01-10T07:46:33;18.10;54.70
45843;DHT22;31563;51.744;8.252;2023-01-10T08:11:22;18.50;55.60
45843;DHT22;31563;51.744;8.252;2023-01-10T08:28:43;18.20;53.60
45843;DHT22;31563;51.744;8.252;2023-01-10T08:36:14;18.10;56.20
45843;DHT22;31563;51.744;8.252;2023-01-10T08:46:10;18.50;54.30
45843;DHT22;31563;51.744;8.252;2023-01-10T08:51:07;18.90;84.30
45843;DHT22;31563;51.744;8.252;2023-01-10T08:53:37;18.40;82.40
45843;DHT22;31563;51.744;8.252;2023-01-10T08:56:06;18.70;53.80
45843;DHT22;31563;51.744;8.252;2023-01-10T09:01:03;18.80;52.90
45843;DHT22;31563;51.744;8.252;2023-01-10T09:03:33;18.60;54.60
45843;DHT22;31563;51.744;8.252;2023-01-10T09:06:02;18.70;83.30
45843;DHT22;31563;51.744;8.252;2023-01-10T09:13:29;19.00;85.00
45843;DHT22;31563;51.744;8.252;2023-01-10T09:20:58;18.80;53.80
45843;DHT22;31563;51.744;8.252;2023-01-10T09:23:26;19.00;83.60
45843;DHT22;31563;51.744;8.252;2023-01-10T09:28:23;18.70;79.40
45843;DHT22;31563;51.744;8.252;2023-01-10T09:38:18;18.80;54.60
45843;DHT22;31563;51.744;8.252;2023-01-10T09:41:20;18.90;50.60
45843;DHT22;31563;51.744;8.252;2023-01-10T09:44:00;19.00;55.20
45843;DHT22;31563;51.744;8.252;2023-01-10T09:46:38;19.00;54.70
45843;DHT22;31563;51.744;8.252;2023-01-10T09:49:16;18.80;52.80
45843;DHT22;31563;51.744;8.252;2023-01-10T09:51:48;18.80;54.10
45843;DHT22;31563;51.744;8.252;2023-01-10T09:54:23;19.60;53.70
45843;DHT22;31563;51.744;8.252;2023-01-10T09:56:53;19.10;54.10
45843;DHT22;31563;51.744;8.252;2023-01-10T09:59:23;19.10;53.00
45843;DHT22;31563;51.744;8.252;2023-01-10T10:01:58;18.70;53.70
45843;DHT22;31563;51.744;8.252;2023-01-10T10:04:32;18.80;53.70
45843;DHT22;31563;51.744;8.252;2023-01-10T10:07:02;19.00;51.70
45843;DHT22;31563;51.744;8.252;2023-01-10T10:09:33;19.10;82.40
45843;DHT22;31563;51.744;8.252;2023-01-10T10:12:18;18.90;84.60
45843;DHT22;31563;51.744;8.252;2023-01-10T10:15:10;19.40;52.50
45843;DHT22;31563;51.744;8.252;2023-01-10T10:17:44;19.20;51.40
45843;DHT22;31563;51.744;8.252;2023-01-10T10:20:29;19.50;51.70
45843;DHT22;31563;51.744;8.252;2023-01-10T10:23:19;19.50;48.00
45843;DHT22;31563;51.744;8.252;2023-01-10T10:26:01;19.40;67.10
45843;DHT22;31563;51.744;8.252;2023-01-10T10:31:51;19.50;51.10
45843;DHT22;31563;51.744;8.252;2023-01-10T10:34:24;19.40;51.00
45843;DHT22;31563;51.744;8.252;2023-01-10T10:36:58;19.50;79.50
45843;DHT22;31563;51.744;8.252;2023-01-10T10:39:33;19.30;49.30
45843;DHT22;31563;51.744;8.252;2023-01-10T10:42:08;19.60;48.80
45843;DHT22;31563;51.744;8.252;2023-01-10T10:44:40;19.70;74.80
45843;DHT22;31563;51.744;8.252;2023-01-10T10:47:14;19.80;76.90
45843;DHT22;31563;51.744;8.252;2023-01-10T10:49:45;20.00;77.10
45843;DHT22;31563;51.744;8.252;2023-01-10T10:52:22;19.90;46.90
45843;DHT22;31563;51.744;8.252;2023-01-10T10:54:52;20.10;47.30
45843;DHT22;31563;51.744;8.252;2023-01-10T10:57:25;19.80;74.50
45843;DHT22;31563;51.744;8.252;2023-01-10T10:59:55;19.60;75.40
45843;DHT22;31563;51.744;8.252;2023-01-10T11:02:25;19.80;49.00
45843;DHT22;31563;51.744;8.252;2023-01-10T11:05:02;19.80;74.60
45843;DHT22;31563;51.744;8.252;2023-01-10T11:07:33;19.90;45.80
45843;DHT22;31563;51.744;8.252;2023-01-10T11:10:08;20.10;47.00
45843;DHT22;31563;51.744;8.252;2023-01-10T11:12:58;20.70;75.70
45843;DHT22;31563;51.744;8.252;2023-01-10T11:15:39;20.20;74.20
45843;DHT22;31563;51.744;8.252;2023-01-10T11:18:11;20.60;75.60
45843;DHT22;31563;51.744;8.252;2023-01-10T11:20:52;20.10;44.90
45843;DHT22;31563;51.744;8.252;2023-01-10T11:23:35;20.60;45.90
45843;DHT22;31563;51.744;8.252;2023-01-10T11:26:04;20.40;50.20
45843;DHT22;31563;51.744;8.252;2023-01-10T11:28:36;21.10;74.20
45843;DHT22;31563;51.744;8.252;2023-01-10T11:31:04;21.30;72.30
45843;DHT22;31563;51.744;8.252;2023-01-10T11:33:34;21.40;75.70
45843;DHT22;31563;51.744;8.252;2023-01-10T11:36:04;21.50;71.80
45843;DHT22;31563;51.744;8.252;2023-01-10T11:38:33;22.20;73.50
45843;DHT22;31563;51.744;8.252;2023-01-10T11:41:02;22.30;69.30
45843;DHT22;31563;51.744;8.252;2023-01-10T11:43:33;22.60;72.50
45843;DHT22;31563;51.744;8.252;2023-01-10T11:46:05;22.60;70.40
45843;DHT22;31563;51.744;8.252;2023-01-10T11:48:42;23.10;71.40
45843;DHT22;31563;51.744;8.252;2023-01-10T11:54:02;21.90;74.60
45843;DHT22;31563;51.744;8.252;2023-01-10T11:56:31;21.70;48.40
45843;DHT22;31563;51.744;8.252;2023-01-10T11:59:07;22.30;70.40
45843;DHT22;31563;51.744;8.252;2023-01-10T12:01:42;21.70;69.90
45843;DHT22;31563;51.744;8.252;2023-01-10T12:04:13;22.00;68.90
45843;DHT22;31563;51.744;8.252;2023-01-10T12:06:43;22.10;69.80
45843;DHT22;31563;51.744;8.252;2023-01-10T12:09:32;22.10;73.80
45843;DHT22;31563;51.744;8.252;2023-01-10T12:12:02;21.40;68.80
45843;DHT22;31563;51.744;8.252;2023-01-10T12:14:31;21.90;74.40
45843;DHT22;31563;51.744;8.252;2023-01-10T12:17:02;22.20;71.40
45843;DHT22;31563;51.744;8.252;2023-01-10T12:19:32;21.80;71.10
45843;DHT22;31563;51.744;8.252;2023-01-10T12:22:04;20.90;70.40
45843;DHT22;31563;51.744;8.252;2023-01-10T12:24:38;21.70;71.60
45843;DHT22;31563;51.744;8.252;2023-01-10T12:27:11;21.50;45.30
45843;DHT22;31563;51.744;8.252;2023-01-10T12:32:18;22.70;46.40
45843;DHT22;31563;51.744;8.252;2023-01-10T12:37:20;22.30;68.30
45843;DHT22;31563;51.744;8.252;2023-01-10T12:42:27;22.50;70.80
45843;DHT22;31563;51.744;8.252;2023-01-10T12:47:54;21.40;45.00
45843;DHT22;31563;51.744;8.252;2023-01-10T12:50:27;21.90;69.00
45843;DHT22;31563;51.744;8.252;2023-01-10T12:53:01;22.40;70.40
45843;DHT22;31563;51.744;8.252;2023-01-10T12:55:35;22.90;45.00
45843;DHT22;31563;51.744;8.252;2023-01-10T12:58:11;21.80;43.80
45843;DHT22;31563;51.744;8.252;2023-01-10T13:00:44;21.70;44.10
45843;DHT22;31563;51.744;8.252;2023-01-10T13:03:19;21.20;72.10
45843;DHT22;31563;51.744;8.252;2023-01-10T13:05:47;21.70;72.00
45843;DHT22;31563;51.744;8.252;2023-01-10T13:10:50;21.80;71.60
45843;DHT22;31563;51.744;8.252;2023-01-10T13:13:23;21.90;73.20
45843;DHT22;31563;51.744;8.252;2023-01-10T13:15:58;21.60;51.30
45843;DHT22;31563;51.744;8.252;2023-01-10T13:18:31;22.20;73.30
45843;DHT22;31563;51.744;8.252;2023-01-10T13:21:04;21.60;47.30
45843;DHT22;31563;51.744;8.252;2023-01-10T13:23:37;21.90;45.20
45843;DHT22;31563;51.744;8.252;2023-01-10T13:26:08;21.50;44.90
45843;DHT22;31563;51.744;8.252;2023-01-10T13:28:38;21.90;74.20
45843;DHT22;31563;51.744;8.252;2023-01-10T13:31:21;21.70;47.80
45843;DHT22;31563;51.744;8.252;2023-01-10T13:33:53;21.90;75.00
45843;DHT22;31563;51.744;8.252;2023-01-10T13:36:24;22.20;74.90
45843;DHT22;31563;51.744;8.252;2023-01-10T13:38:55;21.20;75.10
45843;DHT22;31563;51.744;8.252;2023-01-10T13:44:11;21.00;45.80
45843;DHT22;31563;51.744;8.252;2023-01-10T13:46:47;21.80;45.80
45843;DHT22;31563;51.744;8.252;2023-01-10T13:49:42;22.00;50.80
45843;DHT22;31563;51.744;8.252;2023-01-10T13:52:32;21.80;50.60
45843;DHT22;31563;51.744;8.252;2023-01-10T14:00:22;21.30;77.20
45843;DHT22;31563;51.744;8.252;2023-01-10T14:03:39;21.30;49.80
45843;DHT22;31563;51.744;8.252;2023-01-10T14:08:57;21.20;47.10
45843;DHT22;31563;51.744;8.252;2023-01-10T14:11:27;20.60;77.10
45843;DHT22;31563;51.744;8.252;2023-01-10T14:26:30;21.80;49.00
45843;DHT22;31563;51.744;8.252;2023-01-10T14:29:00;21.00;47.60
45843;DHT22;31563;51.744;8.252;2023-01-10T14:33:58;20.90;76.40
45843;DHT22;31563;51.744;8.252;2023-01-10T14:36:32;20.70;49.30
45843;DHT22;31563;51.744;8.252;2023-01-10T14:39:03;21.20;77.50
45843;DHT22;31563;51.744;8.252;2023-01-10T14:41:36;20.40;48.70
45843;DHT22;31563;51.744;8.252;2023-01-10T14:44:07;20.80;48.10
45843;DHT22;31563;51.744;8.252;2023-01-10T14:46:44;20.50;49.30
45843;DHT22;31563;51.744;8.252;2023-01-10T14:49:22;21.50;51.90
45843;DHT22;31563;51.744;8.252;2023-01-10T14:51:52;19.90;48.70
45843;DHT22;31563;51.744;8.252;2023-01-10T14:56:56;19.90;74.70
45843;DHT22;31563;51.744;8.252;2023-01-10T14:59:26;20.80;48.00
45843;DHT22;31563;51.744;8.252;2023-01-10T15:01:56;20.50;77.90
45843;DHT22;31563;51.744;8.252;2023-01-10T15:04:27;20.40;77.20
45843;DHT22;31563;51.744;8.252;2023-01-10T15:06:59;20.50;49.20
45843;DHT22;31563;51.744;8.252;2023-01-10T15:09:30;20.40;48.80
45843;DHT22;31563;51.744;8.252;2023-01-10T15:12:00;20.20;78.40
45843;DHT22;31563;51.744;8.252;2023-01-10T15:16:59;20.60;49.20
45843;DHT22;31563;51.744;8.252;2023-01-10T15:19:30;20.20;50.30
45843;DHT22;31563;51.744;8.252;2023-01-10T15:22:01;20.70;49.80
45843;DHT22;31563;51.744;8.252;2023-01-10T15:27:02;20.10;76.00
45843;DHT22;31563;51.744;8.252;2023-01-10T15:29:31;19.90;48.00
45843;DHT22;31563;51.744;8.252;2023-01-10T15:32:07;19.20;53.20
45843;DHT22;31563;51.744;8.252;2023-01-10T15:37:14;19.30;53.60
45843;DHT22;31563;51.744;8.252;2023-01-10T15:39:45;19.50;53.90
45843;DHT22;31563;51.744;8.252;2023-01-10T15:44:43;19.40;46.90
45843;DHT22;31563;51.744;8.252;2023-01-10T15:47:34;19.50;51.60
45843;DHT22;31563;51.744;8.252;2023-01-10T15:50:17;19.30;52.30
45843;DHT22;31563;51.744;8.252;2023-01-10T15:52:52;20.00;74.60
45843;DHT22;31563;51.744;8.252;2023-01-10T15:55:38;19.40;46.30
45843;DHT22;31563;51.744;8.252;2023-01-10T15:58:20;19.70;51.20
45843;DHT22;31563;51.744;8.252;2023-01-10T16:00:50;20.00;49.30
45843;DHT22;31563;51.744;8.252;2023-01-10T16:03:23;20.10;51.10
45843;DHT22;31563;51.744;8.252;2023-01-10T16:05:58;19.80;80.90
45843;DHT22;31563;51.744;8.252;2023-01-10T16:08:31;19.80;80.00
45843;DHT22;31563;51.744;8.252;2023-01-10T16:11:03;19.70;45.20
45843;DHT22;31563;51.744;8.252;2023-01-10T16:16:11;20.00;52.60
45843;DHT22;31563;51.744;8.252;2023-01-10T16:21:10;19.70;48.10
45843;DHT22;31563;51.744;8.252;2023-01-10T16:23:43;19.60;50.20
45843;DHT22;31563;51.744;8.252;2023-01-10T16:31:11;20.10;77.00
45843;DHT22;31563;51.744;8.252;2023-01-10T16:36:16;20.10;53.80
45843;DHT22;31563;51.744;8.252;2023-01-10T16:38:46;19.90;54.20
45843;DHT22;31563;51.744;8.252;2023-01-10T16:51:27;19.60;55.60
45843;DHT22;31563;51.744;8.252;2023-01-10T16:53:57;19.20;56.30
45843;DHT22;31563;51.744;8.252;2023-01-10T16:56:27;19.50;55.20
45843;DHT22;31563;51.744;8.252;2023-01-10T17:01:28;19.40;56.10
45843;DHT22;31563;51.744;8.252;2023-01-10T17:03:58;19.70;54.70
45843;DHT22;31563;51.744;8.252;2023-01-10T17:11:27;19.50;55.40
45843;DHT22;31563;51.744;8.252;2023-01-10T17:13:57;19.30;49.60
45843;DHT22;31563;51.744;8.252;2023-01-10T17:16:26;19.50;74.50
45843;DHT22;31563;51.744;8.252;2023-01-10T17:18:54;19.70;75.20
45843;DHT22;31563;51.744;8.252;2023-01-10T17:21:22;19.70;75.00
45843;DHT22;31563;51.744;8.252;2023-01-10T17:23:50;19.60;74.80
45843;DHT22;31563;51.744;8.252;2023-01-10T17:26:20;19.50;74.40
45843;DHT22;31563;51.744;8.252;2023-01-10T17:28:49;19.40;73.50
45843;DHT22;31563;51.744;8.252;2023-01-10T17:31:17;19.30;73.10
45843;DHT22;31563;51.744;8.252;2023-01-10T17:36:15;19.80;75.00
45843;DHT22;31563;51.744;8.252;2023-01-10T17:38:45;19.50;47.20
45843;DHT22;31563;51.744;8.252;2023-01-10T17:43:41;19.50;74.00
45843;DHT22;31563;51.744;8.252;2023-01-10T17:46:11;19.90;48.90
45843;DHT22;31563;51.744;8.252;2023-01-10T17:48:39;19.70;80.40
45843;DHT22;31563;51.744;8.252;2023-01-10T17:53:39;19.50;78.20
45843;DHT22;31563;51.744;8.252;2023-01-10T18:03:34;19.80;50.80
45843;DHT22;31563;51.744;8.252;2023-01-10T18:15:59;19.10;48.90
45843;DHT22;31563;51.744;8.252;2023-01-10T18:20:58;19.50;50.20
45843;DHT22;31563;51.744;8.252;2023-01-10T18:26:00;18.90;79.90
45843;DHT22;31563;51.744;8.252;2023-01-10T18:28:30;19.10;50.90
45843;DHT22;31563;51.744;8.252;2023-01-10T18:31:09;19.90;49.90
45843;DHT22;31563;51.744;8.252;2023-01-10T18:36:12;19.20;78.90
45843;DHT22;31563;51.744;8.252;2023-01-10T18:43:39;19.50;80.40
45843;DHT22;31563;51.744;8.252;2023-01-10T18:46:10;19.30;79.30
45843;DHT22;31563;51.744;8.252;2023-01-10T18:51:10;19.40;50.40
45843;DHT22;31563;51.744;8.252;2023-01-10T18:56:09;19.50;78.10
45843;DHT22;31563;51.744;8.252;2023-01-10T18:58:39;19.40;49.90
45843;DHT22;31563;51.744;8.252;2023-01-10T19:01:10;19.40;50.30
45843;DHT22;31563;51.744;8.252;2023-01-10T19:06:11;19.10;77.00
45843;DHT22;31563;51.744;8.252;2023-01-10T19:11:12;19.10;49.80
45843;DHT22;31563;51.744;8.252;2023-01-10T19:18:41;19.20;80.00
45843;DHT22;31563;51.744;8.252;2023-01-10T19:21:10;19.40;78.60
45843;DHT22;31563;51.744;8.252;2023-01-10T19:23:42;19.20;50.20
45843;DHT22;31563;51.744;8.252;2023-01-10T19:26:12;19.70;80.00
45843;DHT22;31563;51.744;8.252;2023-01-10T19:28:42;19.90;51.80
45843;DHT22;31563;51.744;8.252;2023-01-10T19:31:14;20.00;50.80
45843;DHT22;31563;51.744;8.252;2023-01-10T19:33:46;19.70;82.90
45843;DHT22;31563;51.744;8.252;2023-01-10T19:36:20;19.50;51.40
45843;DHT22;31563;51.744;8.252;2023-01-10T19:38:53;19.20;84.10
45843;DHT22;31563;51.744;8.252;2023-01-10T19:41:24;18.80;55.40
45843;DHT22;31563;51.744;8.252;2023-01-10T19:43:56;18.60;80.60
45843;DHT22;31563;51.744;8.252;2023-01-10T19:46:26;18.80;58.90
45843;DHT22;31563;51.744;8.252;2023-01-10T19:48:55;18.80;85.30
45843;DHT22;31563;51.744;8.252;2023-01-10T19:51:26;18.80;87.90
45843;DHT22;31563;51.744;8.252;2023-01-10T19:53:56;19.20;90.20
45843;DHT22;31563;51.744;8.252;2023-01-10T19:58:53;19.00;92.10
45843;DHT22;31563;51.744;8.252;2023-01-10T20:01:24;19.80;92.70
45843;DHT22;31563;51.744;8.252;2023-01-10T20:03:55;19.30;69.30
45843;DHT22;31563;51.744;8.252;2023-01-10T20:06:26;19.20;69.90
45843;DHT22;31563;51.744;8.252;2023-01-10T20:11:24;19.10;71.40
45843;DHT22;31563;51.744;8.252;2023-01-10T20:13:53;19.20;73.30
45843;DHT22;31563;51.744;8.252;2023-01-10T20:16:22;19.30;73.90
45843;DHT22;31563;51.744;8.252;2023-01-10T20:18:50;19.30;95.60
45843;DHT22;31563;51.744;8.252;2023-01-10T20:23:49;19.50;77.10
45843;DHT22;31563;51.744;8.252;2023-01-10T20:26:19;19.60;94.40
45843;DHT22;31563;51.744;8.252;2023-01-10T20:28:48;19.70;94.60
45843;DHT22;31563;51.744;8.252;2023-01-10T20:31:19;19.80;73.70
45843;DHT22;31563;51.744;8.252;2023-01-10T20:36:18;20.30;76.50
45843;DHT22;31563;51.744;8.252;2023-01-10T20:38:47;20.40;97.00
45843;DHT22;31563;51.744;8.252;2023-01-10T20:41:18;20.50;70.00
45843;DHT22;31563;51.744;8.252;2023-01-10T20:43:46;20.50;69.40
45843;DHT22;31563;51.744;8.252;2023-01-10T20:46:17;20.40;66.40
45843;DHT22;31563;51.744;8.252;2023-01-10T20:48:46;19.90;73.60
45843;DHT22;31563;51.744;8.252;2023-01-10T20:51:17;20.20;65.20
45843;DHT22;31563;51.744;8.252;2023-01-10T20:53:46;20.30;64.80
45843;DHT22;31563;51.744;8.252;2023-01-10T20:56:18;20.20;65.00
45843;DHT22;31563;51.744;8.252;2023-01-10T20:58:46;20.10;64.80
45843;DHT22;31563;51.744;8.252;2023-01-10T21:01:15;20.10;64.40
45843;DHT22;31563;51.744;8.252;2023-01-10T21:03:58;20.10;64.20
45843;DHT22;31563;51.744;8.252;2023-01-10T21:06:27;20.10;63.20
45843;DHT22;31563;51.744;8.252;2023-01-10T21:08:55;20.10;63.00
45843;DHT22;31563;51.744;8.252;2023-01-10T21:11:25;20.10;63.30
45843;DHT22;31563;51.744;8.252;2023-01-10T21:13:53;20.10;62.60
45843;DHT22;31563;51.744;8.252;2023-01-10T21:16:22;20.10;62.70
45843;DHT22;31563;51.744;8.252;2023-01-10T21:18:51;20.00;62.40
45843;DHT22;31563;51.744;8.252;2023-01-10T21:21:20;20.10;61.90
45843;DHT22;31563;51.744;8.252;2023-01-10T21:26:17;19.90;61.50
45843;DHT22;31563;51.744;8.252;2023-01-10T21:28:47;20.50;70.40
45843;DHT22;31563;51.744;8.252;2023-01-10T21:31:17;19.90;71.20
45843;DHT22;31563;51.744;8.252;2023-01-10T21:41:13;19.60;71.70
45843;DHT22;31563;51.744;8.252;2023-01-10T21:44:04;19.20;71.00
45843;DHT22;31563;51.744;8.252;2023-01-10T22:01:25;19.00;67.90
45843;DHT22;31563;51.744;8.252;2023-01-10T22:11:20;18.70;82.50
45843;DHT22;31563;51.744;8.252;2023-01-10T22:16:18;18.80;84.50
45843;DHT22;31563;51.744;8.252;2023-01-10T22:18:47;18.60;85.60
45843;DHT22;31563;51.744;8.252;2023-01-10T22:21:16;18.80;81.10
45843;DHT22;31563;51.744;8.252;2023-01-10T22:23:45;18.80;82.30
45843;DHT22;31563;51.744;8.252;2023-01-10T22:26:15;18.80;82.60
45843;DHT22;31563;51.744;8.252;2023-01-10T22:28:43;18.60;78.70
45843;DHT22;31563;51.744;8.252;2023-01-10T22:31:11;18.60;73.20
45843;DHT22;31563;51.744;8.252;2023-01-10T22:36:12;18.40;82.90
45843;DHT22;31563;51.744;8.252;2023-01-10T22:38:42;18.40;58.60
45843;DHT22;31563;51.744;8.252;2023-01-10T22:41:12;18.20;80.70
45843;DHT22;31563;51.744;8.252;2023-01-10T22:46:09;18.40;84.70
45843;DHT22;31563;51.744;8.252;2023-01-10T22:51:11;18.40;59.00
45843;DHT22;31563;51.744;8.252;2023-01-10T22:56:09;18.30;57.90
45843;DHT22;31563;51.744;8.252;2023-01-10T22:58:38;18.00;79.50
45843;DHT22;31563;51.744;8.252;2023-01-10T23:01:07;18.50;57.50
45843;DHT22;31563;51.744;8.252;2023-01-10T23:06:04;18.20;83.40
45843;DHT22;31563;51.744;8.252;2023-01-10T23:08:34;18.20;56.50
45843;DHT22;31563;51.744;8.252;2023-01-10T23:11:02;18.40;76.40
45843;DHT22;31563;51.744;8.252;2023-01-10T23:13:31;18.90;83.50
45843;DHT22;31563;51.744;8.252;2023-01-10T23:16:01;18.20;82.80
45843;DHT22;31563;51.744;8.252;2023-01-10T23:18:30;18.40;84.80
45843;DHT22;31563;51.744;8.252;2023-01-10T23:23:27;18.40;84.40
45843;DHT22;31563;51.744;8.252;2023-01-10T23:26:01;18.60;82.90
45843;DHT22;31563;51.744;8.252;2023-01-10T23:28:30;18.40;84.80
45843;DHT22;31563;51.744;8.252;2023-01-10T23:30:59;18.70;61.70
45843;DHT22;31563;51.744;8.252;2023-01-10T23:33:27;18.80;86.20
45843;DHT22;31563;51.744;8.252;2023-01-10T23:43:23;18.70;59.20
45843;DHT22;31563;51.744;8.252;2023-01-10T23:45:51;18.60;60.10
45843;DHT22;31563;51.744;8.252;2023-01-10T23:48:19;18.30;87.40
45843;DHT22;31563;51.744;8.252;2023-01-10T23:53:17;18.20;59.80
